createdAt,value
2022-10-06T00:01:09.835Z,65.48
2022-10-06T00:04:52.633Z,65.47
2022-10-06T00:08:37.434Z,65.37
2022-10-06T00:12:20.139Z,65.18
2022-10-06T00:16:04.238Z,65.06
2022-10-06T00:19:48.606Z,65.06
2022-10-06T00:23:31.305Z,65.03
2022-10-06T00:27:13.968Z,65.38
2022-10-06T00:30:57.057Z,65.27
2022-10-06T00:34:39.731Z,65.45
2022-10-06T00:38:23.741Z,65.22
2022-10-06T00:42:06.586Z,65.16
2022-10-06T00:45:50.052Z,65.09
2022-10-06T00:49:36.955Z,65.10
2022-10-06T00:53:19.635Z,65.13
2022-10-06T00:57:04.491Z,65.39
2022-10-06T01:00:47.346Z,65.31
2022-10-06T01:04:32.868Z,65.23
2022-10-06T01:08:16.367Z,65.35
2022-10-06T01:12:01.579Z,65.56
2022-10-06T01:15:49.309Z,65.85
2022-10-06T01:19:39.922Z,66.05
2022-10-06T01:23:24.200Z,66.09
2022-10-06T01:27:09.528Z,66.03
2022-10-06T01:30:54.918Z,66.12
2022-10-06T01:34:37.790Z,66.01
2022-10-06T01:38:21.914Z,65.84
2022-10-06T01:42:06.341Z,65.97
2022-10-06T01:45:55.275Z,66.22
2022-10-06T01:49:37.967Z,66.05
2022-10-06T01:53:20.827Z,66.35
2022-10-06T01:57:03.510Z,66.62
2022-10-06T02:00:48.065Z,66.70
2022-10-06T02:04:30.710Z,67.03
2022-10-06T02:08:13.420Z,67.32
2022-10-06T02:11:56.108Z,67.69
2022-10-06T02:15:38.808Z,67.87
2022-10-06T02:19:23.176Z,68.22
2022-10-06T02:23:05.857Z,68.53
2022-10-06T02:26:48.538Z,69.01
2022-10-06T02:30:31.277Z,69.55
2022-10-06T02:34:14.011Z,69.73
2022-10-06T02:37:58.315Z,69.62
2022-10-06T02:41:41.125Z,69.75
2022-10-06T02:45:23.773Z,69.70
2022-10-06T02:49:06.455Z,69.92
2022-10-06T02:52:49.142Z,70.01
2022-10-06T02:56:33.250Z,69.83
2022-10-06T03:00:16.120Z,69.90
2022-10-06T03:03:58.889Z,69.84
2022-10-06T03:07:41.601Z,69.93
2022-10-06T03:11:25.835Z,70.33
2022-10-06T03:15:10.690Z,70.36
2022-10-06T03:18:54.723Z,70.39
2022-10-06T03:22:37.474Z,70.28
2022-10-06T03:26:21.902Z,70.62
2022-10-06T03:30:06.547Z,70.31
2022-10-06T03:33:51.744Z,70.63
2022-10-06T03:37:34.456Z,70.52
2022-10-06T03:41:18.472Z,70.59
2022-10-06T03:45:01.191Z,70.98
2022-10-06T03:48:43.901Z,70.97
2022-10-06T03:52:27.962Z,71.02
2022-10-06T03:56:14.698Z,70.60
2022-10-06T03:59:59.813Z,70.52
2022-10-06T04:03:42.594Z,70.61
2022-10-06T04:07:25.462Z,70.12
2022-10-06T04:11:11.385Z,70.11
2022-10-06T04:14:57.870Z,70.17
2022-10-06T04:18:43.374Z,69.97
2022-10-06T04:22:26.065Z,69.57
2022-10-06T04:26:12.985Z,69.30
2022-10-06T04:29:56.307Z,69.17
2022-10-06T04:33:39.090Z,68.91
2022-10-06T04:37:21.856Z,69.07
2022-10-06T04:41:08.576Z,69.11
2022-10-06T04:44:52.670Z,69.13
2022-10-06T04:48:35.464Z,69.28
2022-10-06T04:52:18.158Z,69.30
2022-10-06T04:56:02.511Z,68.88
2022-10-06T05:00:17.407Z,69.17
2022-10-06T05:04:03.097Z,68.62
2022-10-06T05:07:46.200Z,68.52
2022-10-06T05:11:29.385Z,68.18
2022-10-06T05:15:12.361Z,68.26
2022-10-06T05:18:55.359Z,68.15
2022-10-06T05:22:39.505Z,67.90
2022-10-06T05:26:36.779Z,67.60
2022-10-06T05:30:19.635Z,67.74
2022-10-06T05:34:02.404Z,67.41
2022-10-06T05:37:46.508Z,67.09
2022-10-06T05:41:31.496Z,67.00
2022-10-06T05:45:15.477Z,66.88
2022-10-06T05:48:59.301Z,66.61
2022-10-06T05:52:42.155Z,66.63
2022-10-06T05:56:27.240Z,66.54
2022-10-06T06:00:11.017Z,66.57
2022-10-06T06:03:54.998Z,66.69
2022-10-06T06:07:37.703Z,66.38
2022-10-06T06:11:25.233Z,66.28
2022-10-06T06:15:28.300Z,65.93
2022-10-06T06:19:12.729Z,65.59
2022-10-06T06:22:55.450Z,65.46
2022-10-06T06:26:38.922Z,65.52
2022-10-06T06:30:23.933Z,65.54
2022-10-06T06:34:07.693Z,64.91
2022-10-06T06:37:50.430Z,65.26
2022-10-06T06:41:35.950Z,65.07
2022-10-06T06:45:18.680Z,65.11
2022-10-06T06:49:05.191Z,65.06
2022-10-06T06:52:47.909Z,64.93
2022-10-06T06:56:35.098Z,64.76
2022-10-06T07:00:18.202Z,64.55
2022-10-06T07:04:02.213Z,66.68
2022-10-06T07:07:45.058Z,66.64
2022-10-06T07:11:29.654Z,64.89
2022-10-06T07:15:30.522Z,64.28
2022-10-06T07:19:32.905Z,61.88
2022-10-06T07:23:46.662Z,61.73
2022-10-06T07:27:29.965Z,62.23
2022-10-06T07:31:12.695Z,61.27
2022-10-06T07:34:58.118Z,61.74
2022-10-06T07:38:41.588Z,61.99
2022-10-06T07:42:24.289Z,62.09
2022-10-06T07:46:10.952Z,61.61
2022-10-06T07:49:56.034Z,60.15
2022-10-06T07:53:40.153Z,59.90
2022-10-06T07:57:23.066Z,59.81
2022-10-06T08:01:06.643Z,59.77
2022-10-06T08:04:49.405Z,59.79
2022-10-06T08:08:33.090Z,59.84
2022-10-06T08:12:40.925Z,59.88
2022-10-06T08:16:30.123Z,60.52
2022-10-06T08:20:13.986Z,59.99
2022-10-06T08:23:58.120Z,59.40
2022-10-06T08:27:44.132Z,59.21
2022-10-06T08:31:26.908Z,59.07
2022-10-06T08:35:09.919Z,59.27
2022-10-06T08:38:52.929Z,58.65
2022-10-06T08:42:42.338Z,58.44
2022-10-06T08:46:31.765Z,59.86
2022-10-06T08:50:14.516Z,60.03
2022-10-06T08:54:05.300Z,59.84
2022-10-06T08:57:55.246Z,59.54
2022-10-06T09:01:42.996Z,59.25
2022-10-06T09:05:28.164Z,58.75
2022-10-06T09:09:33.635Z,59.22
2022-10-06T09:13:54.292Z,59.71
2022-10-06T09:17:40.727Z,59.86
2022-10-06T09:21:30.300Z,59.85
2022-10-06T09:25:17.243Z,60.16
2022-10-06T09:29:00.450Z,59.85
2022-10-06T09:32:48.216Z,58.60
2022-10-06T09:36:30.978Z,58.83
2022-10-06T09:40:29.235Z,59.40
2022-10-06T09:44:23.202Z,58.30
2022-10-06T09:48:19.006Z,58.98
2022-10-06T09:52:05.458Z,59.88
2022-10-06T09:55:54.522Z,59.61
2022-10-06T09:59:42.614Z,60.10
2022-10-06T10:03:30.366Z,59.46
2022-10-06T10:07:16.807Z,60.08
2022-10-06T10:11:27.691Z,60.42
2022-10-06T10:15:25.834Z,60.59
2022-10-06T10:19:23.841Z,60.13
2022-10-06T10:23:20.653Z,60.65
2022-10-06T10:27:09.149Z,60.55
2022-10-06T10:31:02.457Z,60.09
2022-10-06T10:35:06.258Z,61.22
2022-10-06T10:38:49.594Z,61.48
2022-10-06T10:42:35.153Z,60.03
2022-10-06T10:46:24.080Z,60.57
2022-10-06T10:50:12.547Z,60.29
2022-10-06T10:53:57.801Z,60.08
2022-10-06T10:57:43.955Z,59.92
2022-10-06T11:01:33.384Z,61.43
2022-10-06T11:05:30.271Z,59.80
2022-10-06T11:09:14.921Z,58.82
2022-10-06T11:13:17.480Z,58.85
2022-10-06T11:17:05.074Z,58.27
2022-10-06T11:20:52.394Z,58.75
2022-10-06T11:24:42.279Z,58.37
2022-10-06T11:28:29.474Z,57.58
2022-10-06T11:32:20.138Z,58.34
2022-10-06T11:36:04.706Z,59.56
2022-10-06T11:39:50.259Z,57.22
2022-10-06T11:43:37.438Z,56.69
2022-10-06T11:47:35.212Z,56.14
2022-10-06T11:51:30.802Z,56.68
2022-10-06T11:55:23.760Z,55.85
2022-10-06T11:59:35.935Z,56.23
2022-10-06T12:03:55.088Z,56.07
2022-10-06T12:08:11.048Z,56.52
2022-10-06T12:11:55.994Z,57.59
2022-10-06T12:20:13.877Z,54.20
2022-10-06T12:24:03.025Z,53.59
2022-10-06T12:27:58.311Z,53.47
2022-10-06T12:31:47.726Z,51.65
2022-10-06T12:35:33.702Z,50.58
2022-10-06T12:39:25.024Z,52.12
2022-10-06T12:43:44.170Z,51.55
2022-10-06T12:47:35.621Z,51.29
2022-10-06T12:51:25.172Z,51.97
2022-10-06T12:55:22.385Z,53.15
2022-10-06T12:59:28.282Z,54.50
2022-10-06T13:03:18.812Z,54.50
2022-10-06T13:07:07.601Z,54.35
2022-10-06T13:10:51.452Z,52.57
2022-10-06T13:14:34.123Z,53.86
2022-10-06T13:18:19.578Z,52.87
2022-10-06T13:22:03.488Z,52.22
2022-10-06T13:25:49.499Z,50.89
2022-10-06T13:29:32.826Z,50.23
2022-10-06T13:33:15.502Z,50.31
2022-10-06T13:37:00.101Z,50.41
2022-10-06T13:40:45.229Z,50.46
2022-10-06T13:44:32.249Z,51.14
2022-10-06T13:48:17.065Z,50.95
2022-10-06T13:52:08.777Z,50.12
2022-10-06T13:55:54.193Z,50.31
2022-10-06T13:59:38.350Z,49.20
2022-10-06T14:07:26.188Z,49.46
2022-10-06T14:11:09.928Z,48.39
2022-10-06T14:14:53.984Z,48.76
2022-10-06T14:18:39.317Z,48.85
2022-10-06T14:22:34.302Z,48.97
2022-10-06T14:26:18.590Z,49.61
2022-10-06T14:30:01.810Z,49.73
2022-10-06T14:33:45.120Z,48.94
2022-10-06T14:37:27.786Z,48.34
2022-10-06T14:41:15.528Z,49.00
2022-10-06T14:45:01.359Z,49.62
2022-10-06T14:48:44.269Z,49.77
2022-10-06T14:52:27.011Z,50.19
2022-10-06T14:56:14.251Z,51.50
2022-10-06T14:59:57.260Z,50.86
2022-10-06T15:03:41.295Z,51.42
2022-10-06T15:07:43.599Z,51.68
2022-10-06T15:11:29.273Z,51.16
2022-10-06T15:15:12.152Z,51.95
2022-10-06T15:18:55.026Z,52.17
2022-10-06T15:22:37.772Z,50.96
2022-10-06T15:26:38.051Z,49.69
2022-10-06T15:30:23.146Z,49.42
2022-10-06T15:34:07.138Z,50.19
2022-10-06T15:37:49.794Z,49.74
2022-10-06T15:41:33.826Z,50.11
2022-10-06T15:45:18.267Z,50.10
2022-10-06T15:49:06.834Z,50.77
2022-10-06T15:52:49.598Z,51.69
2022-10-06T15:56:32.796Z,51.92
2022-10-06T16:00:16.664Z,51.29
2022-10-06T16:04:02.602Z,51.90
2022-10-06T16:07:46.676Z,51.31
2022-10-06T16:11:59.197Z,51.47
2022-10-06T16:15:42.041Z,52.36
2022-10-06T16:19:25.873Z,52.70
2022-10-06T16:23:09.918Z,53.34
2022-10-06T16:26:54.622Z,54.47
2022-10-06T16:30:37.308Z,55.04
2022-10-06T16:34:20.042Z,55.47
2022-10-06T16:38:02.765Z,56.32
2022-10-06T16:41:47.210Z,56.97
2022-10-06T16:45:29.947Z,57.89
2022-10-06T16:49:12.941Z,58.38
2022-10-06T16:52:58.211Z,59.07
2022-10-06T16:56:42.020Z,59.66
2022-10-06T17:00:26.628Z,60.02
2022-10-06T17:04:10.968Z,60.50
2022-10-06T17:07:58.947Z,61.41
2022-10-06T17:11:42.888Z,62.01
2022-10-06T17:15:31.283Z,62.42
2022-10-06T17:19:17.451Z,63.00
2022-10-06T17:23:00.211Z,63.29
2022-10-06T17:26:49.845Z,63.99
2022-10-06T17:30:34.028Z,64.58
2022-10-06T17:34:20.658Z,65.33
2022-10-06T17:38:04.637Z,65.79
2022-10-06T17:41:54.906Z,66.28
2022-10-06T17:45:40.465Z,66.99
2022-10-06T17:49:24.887Z,67.30
2022-10-06T17:53:07.837Z,67.96
2022-10-06T17:57:05.408Z,68.48
2022-10-06T18:00:49.545Z,68.99
2022-10-06T18:04:33.750Z,69.38
2022-10-06T18:08:17.061Z,69.66
2022-10-06T18:12:10.481Z,70.65
2022-10-06T18:15:54.490Z,70.77
2022-10-06T18:19:37.277Z,71.51
2022-10-06T18:23:19.927Z,71.87
2022-10-06T18:27:15.855Z,72.74
2022-10-06T18:30:59.958Z,73.55
2022-10-06T18:38:46.990Z,73.79
2022-10-06T18:42:29.750Z,74.35
2022-10-06T18:46:32.153Z,73.79
2022-10-06T18:50:41.293Z,74.25
2022-10-06T18:54:27.038Z,74.21
2022-10-06T18:58:10.099Z,74.11
2022-10-06T19:01:55.934Z,74.56
2022-10-06T19:05:38.761Z,74.51
2022-10-06T19:09:23.088Z,74.62
2022-10-06T19:13:05.853Z,74.73
2022-10-06T19:16:51.111Z,75.06
2022-10-06T19:20:35.197Z,75.22
2022-10-06T19:24:20.202Z,75.68
2022-10-06T19:28:03.122Z,76.04
2022-10-06T19:31:47.944Z,75.51
2022-10-06T19:35:30.597Z,76.14
2022-10-06T19:39:14.676Z,76.21
2022-10-06T19:42:57.395Z,76.72
2022-10-06T19:46:47.609Z,77.32
2022-10-06T19:50:30.580Z,77.27
2022-10-06T19:54:14.770Z,77.78
2022-10-06T19:57:57.567Z,78.08
2022-10-06T20:01:42.202Z,78.15
2022-10-06T20:05:25.507Z,78.46
2022-10-06T20:09:09.109Z,78.45
2022-10-06T20:12:53.219Z,78.54
2022-10-06T20:16:36.952Z,78.84
2022-10-06T20:20:20.500Z,79.05
2022-10-06T20:24:06.861Z,79.40
2022-10-06T20:27:50.255Z,79.73
2022-10-06T20:32:05.330Z,80.09
2022-10-06T20:35:48.140Z,80.18
2022-10-06T20:39:49.449Z,80.12
2022-10-06T20:43:33.461Z,80.18
2022-10-06T20:47:17.466Z,80.13
2022-10-06T20:51:00.135Z,80.28
2022-10-06T20:54:43.693Z,80.10
2022-10-06T20:58:26.587Z,79.88
2022-10-06T21:02:25.820Z,80.37
2022-10-06T21:06:08.601Z,80.46
2022-10-06T21:09:52.264Z,82.28
2022-10-06T21:13:35.216Z,81.44
2022-10-06T21:17:31.598Z,82.28
2022-10-06T21:21:15.006Z,82.14
2022-10-06T21:24:57.686Z,82.20
2022-10-06T21:28:41.060Z,80.92
2022-10-06T21:32:32.660Z,79.86
2022-10-06T21:36:17.226Z,79.58
2022-10-06T21:40:02.279Z,79.35
2022-10-06T21:43:45.302Z,79.20
2022-10-06T21:51:42.125Z,78.50
2022-10-06T21:55:24.773Z,78.00
2022-10-06T21:59:07.657Z,77.71
2022-10-06T22:02:50.332Z,77.45
2022-10-06T22:06:35.036Z,77.61
2022-10-06T22:10:19.125Z,76.43
2022-10-06T22:14:04.162Z,76.34
2022-10-06T22:17:47.707Z,76.63
2022-10-06T22:21:31.777Z,76.06
2022-10-06T22:25:14.482Z,75.48
2022-10-06T22:28:59.142Z,75.48
2022-10-06T22:32:41.794Z,75.72
2022-10-06T22:36:25.225Z,75.40
2022-10-06T22:40:09.554Z,75.11
2022-10-06T22:43:57.173Z,75.82
2022-10-06T22:47:41.399Z,75.89
2022-10-06T22:51:24.406Z,75.47
2022-10-06T22:55:08.084Z,74.88
2022-10-06T22:58:50.870Z,74.42
2022-10-06T23:02:33.638Z,74.20
2022-10-06T23:06:18.498Z,74.21
2022-10-06T23:10:01.207Z,73.90
2022-10-06T23:13:44.463Z,73.75
2022-10-06T23:17:27.125Z,73.46
2022-10-06T23:21:11.206Z,73.47
2022-10-06T23:24:55.266Z,73.41
2022-10-06T23:28:38.455Z,73.62
2022-10-06T23:32:21.322Z,73.44
2022-10-06T23:36:05.679Z,73.39
2022-10-06T23:39:48.500Z,73.63
2022-10-06T23:43:32.577Z,73.66
2022-10-06T23:47:15.268Z,73.73
2022-10-06T23:50:59.305Z,73.63
2022-10-06T23:54:42.031Z,73.24
2022-10-06T23:58:24.845Z,73.37
